createdAt,value
2017-12-19T00:02:00.815Z,10.30
2017-12-19T00:04:27.425Z,9.82
2017-12-19T00:06:54.499Z,9.10
2017-12-19T00:09:21.174Z,8.80
2017-12-19T00:11:47.824Z,9.85
2017-12-19T00:14:14.546Z,9.30
2017-12-19T00:16:41.326Z,8.55
2017-12-19T00:19:07.943Z,8.50
2017-12-19T00:21:34.727Z,9.95
2017-12-19T00:24:01.378Z,9.45
2017-12-19T00:26:28.102Z,9.07
2017-12-19T00:28:54.778Z,9.02
2017-12-19T00:31:21.337Z,8.88
2017-12-19T00:33:47.946Z,7.10
2017-12-19T00:36:14.624Z,8.45
2017-12-19T00:38:41.218Z,10.30
2017-12-19T00:41:08.170Z,9.63
2017-12-19T00:43:35.293Z,8.63
2017-12-19T00:46:02.040Z,8.15
2017-12-19T00:48:28.687Z,10.63
2017-12-19T00:50:55.477Z,9.07
2017-12-19T00:53:22.463Z,10.68
2017-12-19T00:55:49.053Z,9.57
2017-12-19T00:58:15.799Z,7.72
2017-12-19T01:00:42.447Z,8.57
2017-12-19T01:03:09.096Z,9.25
2017-12-19T01:05:35.719Z,7.40
2017-12-19T01:08:02.326Z,7.62
2017-12-19T01:10:29.331Z,7.72
2017-12-19T01:12:55.959Z,7.43
2017-12-19T01:15:22.750Z,9.30
2017-12-19T01:17:49.404Z,8.48
2017-12-19T01:20:16.124Z,10.00
2017-12-19T01:22:42.804Z,8.68
2017-12-19T01:25:09.341Z,6.35
2017-12-19T01:27:36.103Z,8.00
2017-12-19T01:30:02.752Z,8.77
2017-12-19T01:32:29.373Z,7.30
2017-12-19T01:34:56.010Z,7.50
2017-12-19T01:37:22.570Z,8.68
2017-12-19T01:39:49.218Z,9.40
2017-12-19T01:42:15.867Z,8.15
2017-12-19T01:44:42.544Z,8.00
2017-12-19T01:47:09.165Z,7.43
2017-12-19T01:49:35.843Z,8.85
2017-12-19T01:52:02.389Z,8.15
2017-12-19T01:54:29.140Z,8.60
2017-12-19T01:56:55.935Z,9.27
2017-12-19T01:59:22.951Z,9.00
2017-12-19T02:01:49.579Z,9.73
2017-12-19T02:04:16.398Z,7.90
2017-12-19T02:06:43.326Z,9.13
2017-12-19T02:09:09.959Z,8.63
2017-12-19T02:11:36.608Z,8.35
2017-12-19T02:14:03.231Z,7.65
2017-12-19T02:16:29.874Z,7.85
2017-12-19T02:18:56.552Z,8.88
2017-12-19T02:21:23.166Z,7.62
2017-12-19T02:23:49.810Z,6.80
2017-12-19T02:26:16.498Z,6.45
2017-12-19T02:28:43.156Z,7.10
2017-12-19T02:31:09.908Z,5.87
2017-12-19T02:33:36.629Z,6.45
2017-12-19T02:36:03.308Z,6.95
2017-12-19T02:38:30.056Z,7.00
2017-12-19T02:40:56.809Z,6.18
2017-12-19T02:43:23.539Z,7.18
2017-12-19T02:45:53.285Z,7.32
2017-12-19T02:48:20.038Z,6.20
2017-12-19T02:50:46.762Z,6.60
2017-12-19T02:53:13.516Z,6.57
2017-12-19T02:55:40.261Z,7.32
2017-12-19T02:58:07.044Z,5.93
2017-12-19T03:00:33.659Z,6.75
2017-12-19T03:03:00.334Z,6.78
2017-12-19T03:05:26.994Z,5.68
2017-12-19T03:07:53.639Z,6.78
2017-12-19T03:10:20.316Z,6.25
2017-12-19T03:12:46.929Z,6.65
2017-12-19T03:15:13.662Z,5.62
2017-12-19T03:17:40.650Z,5.20
2017-12-19T03:20:07.403Z,6.53
2017-12-19T03:22:34.013Z,6.00
2017-12-19T03:25:00.778Z,6.62
2017-12-19T03:27:27.406Z,6.50
2017-12-19T03:29:54.099Z,6.18
2017-12-19T03:32:20.925Z,7.30
2017-12-19T03:34:47.603Z,5.53
2017-12-19T03:37:14.238Z,8.50
2017-12-19T03:39:41.003Z,5.47
2017-12-19T03:42:07.726Z,5.97
2017-12-19T03:44:34.404Z,6.00
2017-12-19T03:47:01.234Z,6.50
2017-12-19T03:49:27.877Z,6.78
2017-12-19T03:51:54.557Z,6.03
2017-12-19T03:54:21.256Z,6.00
2017-12-19T03:56:48.343Z,6.40
2017-12-19T03:59:14.990Z,5.47
2017-12-19T04:01:41.769Z,6.50
2017-12-19T04:04:08.402Z,6.32
2017-12-19T04:06:35.034Z,6.65
2017-12-19T04:09:01.705Z,6.78
2017-12-19T04:11:28.468Z,6.50
2017-12-19T04:13:55.221Z,7.07
2017-12-19T04:16:22.076Z,7.47
2017-12-19T04:18:48.800Z,7.00
2017-12-19T04:21:15.433Z,7.15
2017-12-19T04:23:42.127Z,6.80
2017-12-19T04:26:08.738Z,6.00
2017-12-19T04:28:35.398Z,5.80
2017-12-19T04:31:02.176Z,7.20
2017-12-19T04:33:28.897Z,6.65
2017-12-19T04:35:55.514Z,8.30
2017-12-19T04:38:22.636Z,7.80
2017-12-19T04:40:49.259Z,6.53
2017-12-19T04:43:15.936Z,7.18
2017-12-19T04:45:42.691Z,7.20
2017-12-19T04:48:09.439Z,7.90
2017-12-19T04:50:36.089Z,7.95
2017-12-19T04:53:02.943Z,7.53
2017-12-19T04:55:29.670Z,8.48
2017-12-19T04:57:56.421Z,7.32
2017-12-19T05:00:23.197Z,7.25
2017-12-19T05:02:49.923Z,6.97
2017-12-19T05:05:16.602Z,7.60
2017-12-19T05:07:43.351Z,8.30
2017-12-19T05:10:09.966Z,7.90
2017-12-19T05:12:36.651Z,7.95
2017-12-19T05:15:03.335Z,7.85
2017-12-19T05:17:30.435Z,7.72
2017-12-19T05:19:57.054Z,7.93
2017-12-19T05:22:24.166Z,5.97
2017-12-19T05:24:50.794Z,7.70
2017-12-19T05:27:17.467Z,6.78
2017-12-19T05:29:44.219Z,7.97
2017-12-19T05:32:10.972Z,7.80
2017-12-19T05:34:37.597Z,7.68
2017-12-19T05:37:04.263Z,8.48
2017-12-19T05:39:30.891Z,8.75
2017-12-19T05:41:57.494Z,7.90
2017-12-19T05:44:24.290Z,6.68
2017-12-19T05:46:50.958Z,8.10
2017-12-19T05:49:17.719Z,7.78
2017-12-19T05:51:44.443Z,8.00
2017-12-19T05:54:11.050Z,8.43
2017-12-19T05:56:37.770Z,8.70
2017-12-19T05:59:04.496Z,8.70
2017-12-19T06:01:31.117Z,8.90
2017-12-19T06:03:58.202Z,7.87
2017-12-19T06:06:24.959Z,9.82
2017-12-19T06:08:51.585Z,8.55
2017-12-19T06:11:18.287Z,9.57
2017-12-19T06:13:45.033Z,9.55
2017-12-19T06:16:11.787Z,8.18
2017-12-19T06:18:38.537Z,9.00
2017-12-19T06:21:05.361Z,10.27
2017-12-19T06:23:31.982Z,9.90
2017-12-19T06:25:58.998Z,8.93
2017-12-19T06:28:25.850Z,9.70
2017-12-19T06:30:52.503Z,9.23
2017-12-19T06:33:19.252Z,8.60
2017-12-19T06:35:46.004Z,10.30
2017-12-19T06:38:12.755Z,10.35
2017-12-19T06:40:39.378Z,8.82
2017-12-19T06:43:06.055Z,8.98
2017-12-19T06:45:32.673Z,9.95
2017-12-19T06:47:59.455Z,10.32
2017-12-19T06:50:26.250Z,9.55
2017-12-19T06:52:53.241Z,10.15
2017-12-19T06:55:19.869Z,10.38
2017-12-19T06:57:46.550Z,10.10
2017-12-19T07:00:13.226Z,9.82
2017-12-19T07:02:39.865Z,9.15
2017-12-19T07:05:06.522Z,10.60
2017-12-19T07:07:33.153Z,9.93
2017-12-19T07:09:59.782Z,9.10
2017-12-19T07:12:26.533Z,10.68
2017-12-19T07:14:53.214Z,9.77
2017-12-19T07:17:19.830Z,11.50
2017-12-19T07:19:46.586Z,12.48
2017-12-19T07:22:13.264Z,10.27
2017-12-19T07:24:40.016Z,10.20
2017-12-19T07:27:06.695Z,9.05
2017-12-19T07:29:33.310Z,8.75
2017-12-19T07:32:00.042Z,9.95
2017-12-19T07:34:26.727Z,10.02
2017-12-19T07:36:53.347Z,10.77
2017-12-19T07:39:19.987Z,11.10
2017-12-19T07:41:46.768Z,11.15
2017-12-19T07:44:13.490Z,10.65
2017-12-19T07:46:40.142Z,9.82
2017-12-19T07:49:06.766Z,11.12
2017-12-19T07:51:33.443Z,10.60
2017-12-19T07:54:00.015Z,10.45
2017-12-19T07:56:26.838Z,9.50
2017-12-19T07:58:53.414Z,10.98
2017-12-19T08:01:20.063Z,10.02
2017-12-19T08:03:46.816Z,9.35
2017-12-19T08:06:13.468Z,11.80
2017-12-19T08:08:40.086Z,10.77
2017-12-19T08:11:06.765Z,11.20
2017-12-19T08:13:33.414Z,10.27
2017-12-19T08:16:00.162Z,10.73
2017-12-19T08:18:26.914Z,9.50
2017-12-19T08:20:53.566Z,10.00
2017-12-19T08:23:20.270Z,11.88
2017-12-19T08:25:47.068Z,13.00
2017-12-19T08:28:13.717Z,10.45
2017-12-19T08:30:40.397Z,11.15
2017-12-19T08:33:07.122Z,10.88
2017-12-19T08:35:33.873Z,11.70
2017-12-19T08:38:00.495Z,11.43
2017-12-19T08:40:27.272Z,11.00
2017-12-19T08:42:53.894Z,12.05
2017-12-19T08:45:20.572Z,10.43
2017-12-19T08:47:47.320Z,11.50
2017-12-19T08:50:13.970Z,13.23
2017-12-19T08:52:40.626Z,13.30
2017-12-19T08:55:07.372Z,17.62
2017-12-19T08:57:33.999Z,14.35
2017-12-19T09:00:00.650Z,12.05
2017-12-19T09:02:27.321Z,13.93
2017-12-19T09:04:53.971Z,13.32
2017-12-19T09:07:20.510Z,13.23
2017-12-19T09:09:47.270Z,12.70
2017-12-19T09:12:13.917Z,14.40
2017-12-19T09:14:40.670Z,15.00
2017-12-19T09:17:07.421Z,14.20
2017-12-19T09:19:34.072Z,15.02
2017-12-19T09:22:00.721Z,14.25
2017-12-19T09:24:27.370Z,13.25
2017-12-19T09:26:54.020Z,13.82
2017-12-19T09:29:20.643Z,13.98
2017-12-19T09:31:47.321Z,13.07
2017-12-19T09:34:13.965Z,13.35
2017-12-19T09:36:40.524Z,12.27
2017-12-19T09:39:07.121Z,12.40
2017-12-19T09:41:33.666Z,14.35
2017-12-19T09:44:00.229Z,13.60
2017-12-19T09:46:26.837Z,13.62
2017-12-19T09:48:53.386Z,14.55
2017-12-19T09:51:19.922Z,13.65
2017-12-19T09:53:46.526Z,13.77
2017-12-19T09:56:13.087Z,13.57
2017-12-19T09:58:39.669Z,13.73
2017-12-19T10:01:06.782Z,12.80
2017-12-19T10:03:33.350Z,13.98
2017-12-19T10:05:59.895Z,12.98
2017-12-19T10:08:26.499Z,13.15
2017-12-19T10:10:53.043Z,14.27
2017-12-19T10:13:20.876Z,14.30
2017-12-19T10:15:47.486Z,14.52
2017-12-19T10:18:14.097Z,13.73
2017-12-19T10:20:41.147Z,12.25
2017-12-19T10:23:07.876Z,12.30
2017-12-19T10:25:35.110Z,12.05
2017-12-19T10:28:01.839Z,12.45
2017-12-19T10:30:28.651Z,12.20
2017-12-19T10:32:55.396Z,12.27
2017-12-19T10:35:22.047Z,11.70
2017-12-19T10:37:48.731Z,12.15
2017-12-19T10:40:15.755Z,11.00
2017-12-19T10:42:42.302Z,10.80
2017-12-19T10:45:09.157Z,11.80
2017-12-19T10:47:35.804Z,12.82
2017-12-19T10:50:02.451Z,11.63
2017-12-19T10:52:29.309Z,10.55
2017-12-19T10:54:55.862Z,10.88
2017-12-19T10:57:22.479Z,9.85
2017-12-19T10:59:49.308Z,10.80
2017-12-19T11:02:15.907Z,10.23
2017-12-19T11:04:42.666Z,10.60
2017-12-19T11:07:11.150Z,9.77
2017-12-19T11:09:37.798Z,9.90
2017-12-19T11:12:04.448Z,9.73
2017-12-19T11:14:31.404Z,9.00
2017-12-19T11:16:58.055Z,11.02
2017-12-19T11:19:24.783Z,10.32
2017-12-19T11:21:51.547Z,11.35
2017-12-19T11:24:18.282Z,10.60
2017-12-19T11:26:45.270Z,11.02
2017-12-19T11:29:12.020Z,11.68
2017-12-19T11:31:38.643Z,11.68
2017-12-19T11:34:05.316Z,17.10
2017-12-19T11:36:32.171Z,13.90
2017-12-19T11:38:58.903Z,11.82
2017-12-19T11:41:25.461Z,11.52
2017-12-19T11:43:52.223Z,10.65
2017-12-19T11:46:19.281Z,11.63
2017-12-19T11:48:45.932Z,12.00
2017-12-19T11:51:12.780Z,10.93
2017-12-19T11:53:39.414Z,12.00
2017-12-19T11:56:06.184Z,12.23
2017-12-19T11:58:33.144Z,14.27
2017-12-19T12:00:59.792Z,13.43
2017-12-19T12:03:26.445Z,12.90
2017-12-19T12:05:53.168Z,13.75
2017-12-19T12:08:19.723Z,13.35
2017-12-19T12:10:46.391Z,11.68
2017-12-19T12:13:13.032Z,12.00
2017-12-19T12:15:39.603Z,12.05
2017-12-19T12:18:06.233Z,12.07
2017-12-19T12:20:33.063Z,12.30
2017-12-19T12:22:59.638Z,12.68
2017-12-19T12:25:26.271Z,12.98
2017-12-19T12:27:53.187Z,12.70
2017-12-19T12:30:20.146Z,12.48
2017-12-19T12:32:47.146Z,14.18
2017-12-19T12:35:13.861Z,14.77
2017-12-19T12:37:40.454Z,14.73
2017-12-19T12:40:07.178Z,14.10
2017-12-19T12:42:33.854Z,15.00
2017-12-19T12:45:00.403Z,14.68
2017-12-19T12:47:26.966Z,15.50
2017-12-19T12:49:53.577Z,14.32
2017-12-19T12:52:20.803Z,14.40
2017-12-19T12:54:47.716Z,16.30
2017-12-19T12:57:14.335Z,15.35
2017-12-19T12:59:40.954Z,15.05
2017-12-19T13:02:07.948Z,12.15
2017-12-19T13:04:34.626Z,15.70
2017-12-19T13:07:01.189Z,15.68
2017-12-19T13:09:27.825Z,14.30
2017-12-19T13:11:54.512Z,13.73
2017-12-19T13:14:21.475Z,16.75
2017-12-19T13:16:48.465Z,15.48
2017-12-19T13:19:15.073Z,15.60
2017-12-19T13:21:42.158Z,20.25
2017-12-19T13:24:08.713Z,14.70
2017-12-19T13:26:35.322Z,15.23
2017-12-19T13:29:02.259Z,15.23
2017-12-19T13:31:28.802Z,15.10
2017-12-19T13:33:55.426Z,17.25
2017-12-19T13:36:21.990Z,15.05
2017-12-19T13:38:48.538Z,17.73
2017-12-19T13:41:15.126Z,18.12
2017-12-19T13:43:41.707Z,15.93
2017-12-19T13:46:08.271Z,14.73
2017-12-19T13:48:34.866Z,15.65
2017-12-19T13:51:01.777Z,14.48
2017-12-19T13:53:28.338Z,16.27
2017-12-19T13:55:54.922Z,14.50
2017-12-19T13:58:21.951Z,16.40
2017-12-19T14:00:48.502Z,16.55
2017-12-19T14:03:15.127Z,16.92
2017-12-19T14:05:41.678Z,17.90
2017-12-19T14:08:08.234Z,16.77
2017-12-19T14:10:34.870Z,16.52
2017-12-19T14:13:01.462Z,17.17
2017-12-19T14:15:28.446Z,17.15
2017-12-19T14:17:55.045Z,17.85
2017-12-19T14:20:21.607Z,18.12
2017-12-19T14:22:48.616Z,17.02
2017-12-19T14:25:15.280Z,17.48
2017-12-19T14:27:41.827Z,16.90
2017-12-19T14:30:08.374Z,17.23
2017-12-19T14:32:35.121Z,16.25
2017-12-19T14:35:01.671Z,18.65
2017-12-19T14:37:28.209Z,17.85
2017-12-19T14:39:54.943Z,18.87
2017-12-19T14:42:21.600Z,18.23
2017-12-19T14:44:48.271Z,18.87
2017-12-19T14:47:15.095Z,18.45
2017-12-19T14:49:41.647Z,19.52
2017-12-19T14:52:08.320Z,18.80
2017-12-19T14:54:34.946Z,17.90
2017-12-19T14:57:01.495Z,19.23
2017-12-19T14:59:28.143Z,20.60
2017-12-19T15:01:54.890Z,20.10
2017-12-19T15:04:21.567Z,17.60
2017-12-19T15:06:48.106Z,19.75
2017-12-19T15:09:14.967Z,21.40
2017-12-19T15:11:41.667Z,19.10
2017-12-19T15:14:08.676Z,19.73
2017-12-19T15:16:35.324Z,20.42
2017-12-19T15:19:01.946Z,21.35
2017-12-19T15:21:28.498Z,21.30
2017-12-19T15:23:55.142Z,21.70
2017-12-19T15:26:21.715Z,21.08
2017-12-19T15:28:48.254Z,21.25
2017-12-19T15:31:15.091Z,21.90
2017-12-19T15:33:41.770Z,20.95
2017-12-19T15:36:08.420Z,19.75
2017-12-19T15:38:35.142Z,22.20
2017-12-19T15:41:01.701Z,20.42
2017-12-19T15:43:28.264Z,19.95
2017-12-19T15:45:55.016Z,23.50
2017-12-19T15:48:21.743Z,20.62
2017-12-19T15:50:48.418Z,21.98
2017-12-19T15:53:15.037Z,21.58
2017-12-19T15:55:41.590Z,20.17
2017-12-19T15:58:08.147Z,22.77
2017-12-19T16:00:34.811Z,19.60
2017-12-19T16:03:01.758Z,21.42
2017-12-19T16:05:28.293Z,17.85
2017-12-19T16:07:54.914Z,19.35
2017-12-19T16:10:21.612Z,20.85
2017-12-19T16:12:48.262Z,20.08
2017-12-19T16:15:15.087Z,22.95
2017-12-19T16:17:41.764Z,21.48
2017-12-19T16:20:08.413Z,23.90
2017-12-19T16:22:35.070Z,21.30
2017-12-19T16:25:01.690Z,22.80
2017-12-19T16:27:28.294Z,24.45
2017-12-19T16:29:54.986Z,20.55
2017-12-19T16:32:21.560Z,21.45
2017-12-19T16:34:48.210Z,22.20
2017-12-19T16:37:14.801Z,21.55
2017-12-19T16:39:41.791Z,22.67
2017-12-19T16:42:08.354Z,21.80
2017-12-19T16:44:35.010Z,22.33
2017-12-19T16:47:01.659Z,21.65
2017-12-19T16:49:28.210Z,22.62
2017-12-19T16:51:54.822Z,21.77
2017-12-19T16:54:21.407Z,22.30
2017-12-19T16:56:48.051Z,22.30
2017-12-19T16:59:14.905Z,23.23
2017-12-19T17:01:41.555Z,24.20
2017-12-19T17:04:08.178Z,25.50
2017-12-19T17:06:34.854Z,27.35
2017-12-19T17:09:01.503Z,26.00
2017-12-19T17:11:28.054Z,29.27
2017-12-19T17:13:54.804Z,31.83
2017-12-19T17:16:21.427Z,28.87
2017-12-19T17:18:48.003Z,30.67
2017-12-19T17:21:14.633Z,28.15
2017-12-19T17:23:41.270Z,27.27
2017-12-19T17:26:07.842Z,28.33
2017-12-19T17:28:34.699Z,28.50
2017-12-19T17:31:01.322Z,27.52
2017-12-19T17:33:27.970Z,28.55
2017-12-19T17:35:54.752Z,28.75
2017-12-19T17:38:21.282Z,29.90
2017-12-19T17:40:47.918Z,26.95
2017-12-19T17:43:14.515Z,29.55
2017-12-19T17:45:41.145Z,28.50
2017-12-19T17:48:07.793Z,28.92
2017-12-19T17:50:34.378Z,26.12
2017-12-19T17:53:08.323Z,26.80
2017-12-19T17:55:35.058Z,26.70
2017-12-19T17:58:02.171Z,25.92
2017-12-19T18:00:28.717Z,23.65
2017-12-19T18:02:55.369Z,25.92
2017-12-19T18:05:22.019Z,25.12
2017-12-19T18:07:48.570Z,26.52
2017-12-19T18:10:15.420Z,25.10
2017-12-19T18:12:42.170Z,24.40
2017-12-19T18:15:08.739Z,25.45
2017-12-19T18:17:35.443Z,25.80
2017-12-19T18:20:02.119Z,22.45
2017-12-19T18:22:28.690Z,25.12
2017-12-19T18:24:55.390Z,24.50
2017-12-19T18:27:21.966Z,23.58
2017-12-19T18:29:48.615Z,21.98
2017-12-19T18:32:15.301Z,23.65
2017-12-19T18:34:42.321Z,22.98
2017-12-19T18:37:08.858Z,23.15
2017-12-19T18:39:35.470Z,23.60
2017-12-19T18:42:02.010Z,24.12
2017-12-19T18:44:29.028Z,24.70
2017-12-19T18:46:55.673Z,23.35
2017-12-19T18:49:22.299Z,20.83
2017-12-19T18:51:48.968Z,21.37
2017-12-19T18:54:15.694Z,22.30
2017-12-19T18:56:42.342Z,21.67
2017-12-19T18:59:08.889Z,22.75
2017-12-19T19:01:35.502Z,23.20
2017-12-19T19:04:02.498Z,24.30
2017-12-19T19:06:29.150Z,28.27
2017-12-19T19:08:55.800Z,27.52
2017-12-19T19:11:22.474Z,24.92
2017-12-19T19:13:49.123Z,26.20
2017-12-19T19:16:15.850Z,27.08
2017-12-19T19:18:42.524Z,23.52
2017-12-19T19:21:09.083Z,23.20
2017-12-19T19:23:35.823Z,24.45
2017-12-19T19:26:03.396Z,25.55
2017-12-19T19:28:29.974Z,22.02
2017-12-19T19:30:57.032Z,20.35
2017-12-19T19:33:23.646Z,19.67
2017-12-19T19:35:51.272Z,22.40
2017-12-19T19:38:18.282Z,21.05
2017-12-19T19:40:44.904Z,20.23
2017-12-19T19:43:11.582Z,22.15
2017-12-19T19:45:38.214Z,21.23
2017-12-19T19:48:04.774Z,23.65
2017-12-19T19:50:31.425Z,23.02
2017-12-19T19:52:59.146Z,23.30
2017-12-19T19:55:27.050Z,20.67
2017-12-19T19:57:53.626Z,23.00
2017-12-19T20:00:20.480Z,24.52
2017-12-19T20:02:48.153Z,22.40
2017-12-19T20:05:14.903Z,22.80
2017-12-19T20:07:42.386Z,22.23
2017-12-19T20:10:08.932Z,22.45
2017-12-19T20:12:35.506Z,22.95
2017-12-19T20:15:02.628Z,22.15
2017-12-19T20:17:31.222Z,23.42
2017-12-19T20:19:57.950Z,21.75
2017-12-19T20:22:24.639Z,24.27
2017-12-19T20:24:51.198Z,23.42
2017-12-19T20:27:18.166Z,23.75
2017-12-19T20:29:45.139Z,21.60
2017-12-19T20:32:11.732Z,23.27
2017-12-19T20:34:38.823Z,21.92
2017-12-19T20:37:07.038Z,22.83
2017-12-19T20:39:34.391Z,21.20
2017-12-19T20:42:00.949Z,23.48
2017-12-19T20:44:29.190Z,21.45
2017-12-19T20:46:55.733Z,22.33
2017-12-19T20:49:22.376Z,19.92
2017-12-19T20:51:48.998Z,23.08
2017-12-19T20:54:15.550Z,20.73
2017-12-19T20:56:42.220Z,22.05
2017-12-19T20:59:09.016Z,23.17
2017-12-19T21:01:36.031Z,23.30
2017-12-19T21:04:02.655Z,24.25
2017-12-19T21:06:29.369Z,22.90
2017-12-19T21:08:56.363Z,23.55
2017-12-19T21:11:22.911Z,22.60
2017-12-19T21:13:49.510Z,23.80
2017-12-19T21:16:16.050Z,22.40
2017-12-19T21:18:42.715Z,24.55
2017-12-19T21:21:10.102Z,22.65
2017-12-19T21:23:37.121Z,21.90
2017-12-19T21:26:04.066Z,23.77
2017-12-19T21:28:31.006Z,21.25
2017-12-19T21:30:57.889Z,21.55
2017-12-19T21:33:24.701Z,21.98
2017-12-19T21:35:52.723Z,21.00
2017-12-19T21:38:19.647Z,23.70
2017-12-19T21:40:46.445Z,21.60
2017-12-19T21:43:13.800Z,22.70
2017-12-19T21:45:40.750Z,22.90
2017-12-19T21:48:07.608Z,22.30
2017-12-19T21:50:34.494Z,21.08
2017-12-19T21:53:01.828Z,21.62
2017-12-19T21:55:29.000Z,23.02
2017-12-19T21:57:56.151Z,24.20
2017-12-19T22:00:23.106Z,22.77
2017-12-19T22:02:50.058Z,24.40
2017-12-19T22:05:17.234Z,23.05
2017-12-19T22:07:44.186Z,20.95
2017-12-19T22:10:11.027Z,22.65
2017-12-19T22:12:38.092Z,21.42
2017-12-19T22:15:05.048Z,21.02
2017-12-19T22:17:32.049Z,22.87
2017-12-19T22:19:59.094Z,25.20
2017-12-19T22:22:26.274Z,23.42
2017-12-19T22:24:53.385Z,22.48
2017-12-19T22:27:20.744Z,26.48
2017-12-19T22:29:47.578Z,25.05
2017-12-19T22:32:14.385Z,26.15
2017-12-19T22:34:41.929Z,22.90
2017-12-19T22:37:08.890Z,22.13
2017-12-19T22:39:35.840Z,24.90
2017-12-19T22:42:03.007Z,24.15
2017-12-19T22:44:29.819Z,23.62
2017-12-19T22:46:56.704Z,25.25
2017-12-19T22:49:23.766Z,24.80
2017-12-19T22:51:50.614Z,24.95
2017-12-19T22:54:17.458Z,23.45
2017-12-19T22:56:44.062Z,24.75
2017-12-19T22:59:10.626Z,25.98
2017-12-19T23:01:37.199Z,24.37
2017-12-19T23:04:04.054Z,23.70
2017-12-19T23:06:30.713Z,21.05
2017-12-19T23:08:57.254Z,23.20
2017-12-19T23:11:23.847Z,24.90
2017-12-19T23:13:50.821Z,23.25
2017-12-19T23:16:17.362Z,22.87
2017-12-19T23:18:43.955Z,23.98
2017-12-19T23:21:10.574Z,23.90
2017-12-19T23:23:37.110Z,21.45
2017-12-19T23:26:03.797Z,22.25
2017-12-19T23:28:30.448Z,23.10
2017-12-19T23:30:57.006Z,22.42
2017-12-19T23:33:23.614Z,23.20
2017-12-19T23:35:50.183Z,20.80
2017-12-19T23:38:16.736Z,22.80
2017-12-19T23:40:43.540Z,21.62
2017-12-19T23:43:10.501Z,21.65
2017-12-19T23:45:37.093Z,22.73
2017-12-19T23:48:03.706Z,21.55
2017-12-19T23:50:30.242Z,19.23
2017-12-19T23:52:56.807Z,16.90
2017-12-19T23:55:23.485Z,17.75
2017-12-19T23:57:50.563Z,18.00
